Correll Park, North Carolina
Current Conditions -  °F | °C
As of 9:35 AM on Monday 20 Oct 2014 (Local Time) from KRUQ Reporting Station
Clear Clear  
Wind Chill: 54°   Ceiling: Unl
Heat Index: 54°   Visibility: 10mi
Dew Point: 46°   Wind: 5mph
Humidity: 75%   Direction: 180°S
Pressure: 30.14"   Gusts: NA
Location:  35.6881°N, 80.5385°W
Report Text: KRUQ 201335Z AUTO 18004KT 10SM CLR 12/08 A3014 RMK AO2 T01220078
Loading
Personal Weather Stations






























Interactive Weather Map
Tropical Storm Tracking
New forecast layout! Learn more

10-Day Weather Forecast

Advertisements
Track Severe Weather on mobile